Duckwater, Nevada Weather observations

Data are for 10 minute period ending at time listed.
 Day   Time   Solar   Ave.   Ave.  Ave.  Vector  Max.   Baro.   Total    
  of    of     Rad.   Air    Rel.  Wind   Wind   Wind  Press.  Precip.   
Year   Day            Temp.  Hum.  Speed  Dir.   Gust                    
2014   (PST)   w/m2    F      %     mph   deg.    mph    mb.     in.    
-----------------------------------------------------------------------
 243    4:10      0   59.8    33    7.7   347    11.0   999.0   0.00  
 243    4:20      0   57.7    36    7.0   355     9.5   999.0   0.00  
 243    4:30      0   57.8    36    6.7     9     9.6   999.0   0.00  
 243    4:40      0   59.6    33    7.1   355    10.0   999.0   0.00  
 243    4:50      0   58.5    35    6.4   346     9.1   999.0   0.00  
 243    5:00      0   57.3    37    7.2   357    10.0   999.0   0.00  
 243    5:10      2   56.5    38    6.2    13    10.4   999.0   0.00  
 243    5:20      5   57.1    37    4.8    16     7.8   999.0   0.00  
 243    5:30      9   59.5    33    7.4     6    11.3   999.0   0.00  
 243    5:40     26   59.6    33    7.5   360    10.7   999.0   0.00  
 243    5:50     53   60.0    33    8.0   359    13.2   999.0   0.00  
 243    6:00     81   59.5    34    7.8   346    11.6   999.0   0.00  
 243    6:10    115   59.7    34    9.5   348    13.2   999.0   0.00  
 243    6:20    152   59.9    34   10.1   346    13.7   999.0   0.00  
 243    6:30    179   60.1    34    9.3   344    13.4   999.0   0.00  
 243    6:40    206   60.6    34    8.7   349    12.3   999.0   0.00  
 243    6:50    237   62.0    32    7.9     4    11.8   999.0   0.00  
 243    7:00    273   63.1    32    6.6     1     9.7   999.0   0.00  
 243    7:10    308   63.8    31    8.5   353    11.9   999.0   0.00  
 243    7:20    341   64.8    30    9.4   351    14.9   999.0   0.00  
 243    7:30    378   65.5    30    9.3   346    13.7   999.0   0.00  
 243    7:40    413   66.0    30    8.7   346    13.3   999.0   0.00  
 243    7:50    442   66.6    29    9.1   346    12.9   999.0   0.00  
 243    8:00    471   67.3    29    7.4   339    13.4   999.0   0.00  
 243    8:10    505   68.2    28    7.7   345    12.6   999.0   0.00  
 243    8:20    536   68.7    28    7.4   336    12.1   999.0   0.00  
 243    8:30    572   69.2    27    7.3   338    11.8   999.0   0.00  
 243    8:40    597   70.0    27    6.6   339    11.5   999.0   0.00  
 243    8:50    625   70.2    27    7.3   343    12.3   999.0   0.00  
 243    9:00    664   70.9    26    7.5   349    12.7   999.0   0.00  
 243    9:10    688   71.2    26    8.1   350    14.3   999.0   0.00  
 243    9:20    712   71.7    24    6.8    20    12.5   999.0   0.00  
 243    9:30    729   71.7    24    7.2    23    14.5   999.0   0.00  
 243    9:40    746   71.7    24    6.4    19    14.2   999.0   0.00  
 243    9:50    759   72.8    24    6.1    12    10.8   999.0   0.00  
 243   10:00    783   73.0    23    6.0    31    11.8   999.0   0.00  
 243   10:10    806   73.4    22    7.0    24    12.2   999.0   0.00  
 243   10:20    827   74.1    22    6.2    24    10.7   999.0   0.00  
 243   10:30    835   74.6    22    5.8    10    13.1   999.0   0.00  
 243   10:40    849   75.3    20    4.7    35    10.2   999.0   0.00  
 243   10:50    862   74.9    21    5.9     6    12.3   999.0   0.00  
 243   11:00    870   75.5    20    6.0    40    15.2   999.0   0.00  
 243   11:10    875   75.4    19    5.9    73    10.4   999.0   0.00  
 243   11:20    881   75.8    20    6.4   351    12.4   999.0   0.00  
 243   11:30    882   76.1    19    5.8    45    11.3   999.0   0.00  
 243   11:40    886   77.2    19    3.6     8    11.1   999.0   0.00  
 243   11:50    884   78.3    17    4.0    68     8.6   999.0   0.00  
 243   12:00    876   77.4    20    6.5   338    10.5   999.0   0.00  
 243   12:10    873   77.6    18    3.7    37     7.7   999.0   0.00  
 243   12:20    875   78.7    19    4.4   324     8.4   999.0   0.00  
 243   12:30    871   78.9    18    3.7     1     8.3   999.0   0.00  
 243   12:40    865   80.3    16    2.6   278     8.0   999.0   0.00  
 243   12:50    854   81.3    16    3.5   261     7.2   999.0   0.00  
 243   13:00    839   80.1    17    4.9   269    11.2   999.0   0.00  
 243   13:10    823   81.1    15    4.0   156     8.5   999.0   0.00  
 243   13:20    809   82.1    15    2.9    95     7.1   999.0   0.00  
 243   13:30    793   82.6    15    3.9    56     9.9   999.0   0.00  
 243   13:40    772   81.4    16    3.3    11     7.3   999.0   0.00  
 243   13:50    752   82.1    14    3.2    46     9.7   999.0   0.00  
 243   14:00    737   82.6    15    3.2   334     7.7   999.0   0.00  
 243   14:10    709   82.8    15    3.3   301     7.2   999.0   0.00  
 243   14:20    689   82.3    15    3.1   324     5.9   999.0   0.00  
 243   14:30    665   84.0    14    2.2   217     5.4   999.0   0.00  
 243   14:40    639   83.8    14    4.6   236     8.6   999.0   0.00  
 243   14:50    607   84.0    14    3.7   211     8.9   999.0   0.00  
 243   15:00    580   84.6    14    9.2   137    18.3   999.0   0.00  
 243   15:10    551   82.6    14    6.7    96    12.6   999.0   0.00  
 243   15:20    518   83.2    14    6.8   103    16.4   999.0   0.00  
 243   15:30    489   82.2    14    6.7    86    11.5   999.0   0.00  
 243   15:40    459   82.5    14    6.4    86    17.4   999.0   0.00  
 243   15:50    424   82.4    14    6.3   116    12.1   999.0   0.00  
 243   16:00    391   83.9    13    5.1   131    11.4   999.0   0.00  
 243   16:10    361   83.9    13    2.8   120     8.0   999.0   0.00  
 243   16:20    328   83.5    14    5.1   116     8.4   999.0   0.00  
 243   16:30    294   83.9    13    3.4   141     6.6   999.0   0.00  
 243   16:40    261   84.3    14    6.2   175     9.1   999.0   0.00  
 243   16:50    228   83.5    14    7.3   167    10.5   999.0   0.00  
 243   17:00    196   83.3    14    5.4   170     8.9   999.0   0.00  
 243   17:10    164   82.8    14    6.2   190     8.5   999.0   0.00  
 243   17:20    134   82.0    14    5.4   175     7.8   999.0   0.00  
 243   17:30    103   82.0    14    4.9   183     7.5   999.0   0.00  
 243   17:40     71   81.5    14    3.6   182     5.3   999.0   0.00  
 243   17:50     44   81.1    15    1.8   178     4.1   999.0   0.00  
 243   18:00     21   79.7    15    2.2   130     5.3   999.0   0.00  
 243   18:10      9   78.0    16    1.4    96     2.3   999.0   0.00  
 243   18:20      5   76.4    18    1.0    63     1.9   999.0   0.00  
 243   18:30      0   74.6    19    2.2    44     2.8   999.0   0.00  
 243   18:40      0   72.9    20    2.8    47     3.5   999.0   0.00  
 243   18:50      0   71.4    21    2.7    29     3.6   999.0   0.00  
 243   19:00      0   69.9    24    1.9    30     3.3   999.0   0.00  
 243   19:10      0   68.9    23    2.3    56     3.2   999.0   0.00  
 243   19:20      0   67.7    24    1.1    62     2.5   999.0   0.00  
 243   19:30      0   65.8    28    0.2   338     1.5   999.0   0.00  
 243   19:40      0   64.4    29    0.8    65     2.6   999.0   0.00  
 243   19:50      0   65.3    28    1.5   349     3.6   999.0   0.00  
 243   20:00      0   65.4    27    3.2   349     6.8   999.0   0.00  
 243   20:10      0   67.0    25    3.7    16     7.1   999.0   0.00  
 243   20:20      0   67.0    26    2.5    10     4.7   999.0   0.00  
 243   20:30      0   66.5    26    5.8     4    12.3   999.0   0.00  
 243   20:40      0   66.8    26    8.9   357    13.6   999.0   0.00  
 243   20:50      0   66.4    26    8.9     2    14.9   999.0   0.00  
 243   21:00      0   66.1    25    9.5   356    13.4   999.0   0.00  
 243   21:10      0   65.0    26    8.4   360    13.3   999.0   0.00  
 243   21:20      0   63.8    27    8.4   357    13.2   999.0   0.00  
 243   21:30      0   64.2    27    8.6   357    13.0   999.0   0.00  
 243   21:40      0   65.3    26    7.8     2    11.6   999.0   0.00  
 243   21:50      0   64.8    26    6.3     8     9.6   999.0   0.00  
 243   22:00      0   64.6    26    7.3     6    11.5   999.0   0.00  
 243   22:10      0   64.8    26    6.7     4    10.0   999.0   0.00  
 243   22:20      0   63.8    27    6.1     9    10.2   999.0   0.00  
 243   22:30      0   62.8    28    6.2    13    10.8   999.0   0.00  
 243   22:40      0   61.7    29    4.4     7     7.8   999.0   0.00  
 243   22:50      0   60.3    31    2.2   275     5.3   999.0   0.00  
 243   23:00      0   58.4    33    2.7   256     6.1   999.0   0.00  
 243   23:10      0   60.4    30    2.4   302     5.8   999.0   0.00  
 243   23:20      0   60.8    30    3.6   320     6.9   999.0   0.00  
 243   23:30      0   60.1    31    3.7     8     6.6   999.0   0.00  
 243   23:40      0   59.4    32    4.2   347     6.6   999.0   0.00  
 243   23:50      0   58.7    33    3.9   356     7.1   999.0   0.00  
 244    0:00      0   58.8    33    6.7   345     9.7   999.0   0.00  
 244    0:10      0   58.4    33    7.3   349    10.7   999.0   0.00  
 244    0:20      0   58.8    32    7.5   350    10.4   999.0   0.00  
 244    0:30      0   58.9    32    7.7   355    11.2   999.0   0.00  
 244    0:40      0   59.0    32    9.2   355    12.3   999.0   0.00  
 244    0:50      0   58.1    33    7.8   349    12.1   999.0   0.00  
 244    1:00      0   57.1    34    6.4   341    10.1   999.0   0.00  
 244    1:10      0   56.0    36    6.1   343    10.4   999.0   0.00  
 244    1:20      0   55.8    37    5.6   344     8.6   999.0   0.00  
 244    1:30      0   54.6    39    4.4   344     6.9   999.0   0.00  
 244    1:40      0   55.9    36    5.2     6     8.2   999.0   0.00  
 244    1:50      0   55.8    37    3.7     3     5.8   999.0   0.00  
 244    2:00      0   55.0    38    4.0   344     7.6   999.0   0.00  
 244    2:10      0   54.2    39    3.7   338     6.6   999.0   0.00  
 244    2:20      0   53.8    40    4.6   331     6.6   999.0   0.00  
 244    2:30      0   53.6    40    4.0   349     6.8   999.0   0.00  
 244    2:40      0   54.6    39    4.6   352     7.5   999.0   0.00  
 244    2:50      0   55.0    39    5.3   349     8.0   999.0   0.00  
 244    3:00      0   57.4    35    5.3     0     9.3   999.0   0.00  
 244    3:10      0   57.2    35    5.4     0     9.1   999.0   0.00  
 244    3:20      0   57.3    35    6.4     3     9.3   999.0   0.00  
 244    3:30      0   57.5    35    5.8     5     9.4   999.0   0.00  
 244    3:40      0   57.2    36    5.0    16     8.4   999.0   0.00  
 244    3:50      0   56.5    37    4.9    15     7.6   999.0   0.00  
 244    4:00      0   54.6    42    1.9   219     5.0   999.0   0.00  

Return to Duckwater graphs page.


Western Regional Climate Center,wrcc@dri.edu